首页
METAR-TAF:

METAR-TAF

机场 :

Worland Municipal Airport

Worland, 怀俄明州, 美国

纬度: 43-57-57N, 经度: 107-57-03W, 海拔: 1288米

当前天气观测

该预报发布于31分钟前的07:53 UTC
风速8节,风向
温度 7°C
湿度 39%
气压 1012 hPa
能見度: 16.1公里
天空无云

METAR: KWRL 310753Z AUTO 17008KT 10SM CLR 07/M06 A2987 RMK AO2 SLP106 T00671061

时间: 02:24 (08:24 UTC)

预报

该预报发布于2小时和54分钟前的05:30 UTC
预报有效从31日的 06点(UTC)到 01日的 06点(UTC)
风速7节,风向
能見度: 10公里
多云层高于20000英尺
从 31日的 1500点(UTC)
风速11节,风向西转西南
能見度: 10公里
散云层高于9000英尺
多云层高于15000英尺
从 31日的 1800点(UTC)
风速12节,风向西转西北
能見度: 10公里
阴天层高于9000英尺

TAF: KWRL 310530Z 3106/0106 17007KT P6SM BKN200 FM311500 25011KT P6SM SCT090 BKN150 FM311800 30012KT P6SM OVC090

超过4000个机场的气象观测和天气预报(METAR&TAF报告)。

可查询的气象台以黄色和红色小点在地图上表示。

将鼠标移到小点上方,可查看气象台名称。

然后点击查看天气观测和预报。

如需切换地图:点击带黑十字的绿色按钮放大地图;点击带横线的绿色按钮缩小地图;或者点击绿色箭头查看邻近地区的地图。


METAR-TAF: